Time,TemperatureF,DewpointF,PressureIn,WindDirection,WindDirectionDegrees,WindSpeedMPH,WindSpeedGustMPH,Humidity,HourlyPrecipIn,Conditions,Clouds,dailyrainin,SolarRadiationWatts/m^2,SoftwareType,DateUTC
2013-01-08 00:29:00,57.8,54.0,30.21,NNE,28,1.0,3.0,86,0.00,,,0.00,0,weatherlink.com 1.10,2013-01-08 05:29:00,
2013-01-08 00:44:00,57.9,54.0,30.21,NNE,15,2.0,4.0,86,0.00,,,0.00,0,weatherlink.com 1.10,2013-01-08 05:44:00,
2013-01-08 00:59:00,58.0,54.0,30.21,NNE,17,1.0,5.0,86,0.00,,,0.00,0,weatherlink.com 1.10,2013-01-08 05:59:00,
2013-01-08 01:14:00,58.0,54.0,30.20,NNE,30,2.0,6.0,86,0.00,,,0.00,0,weatherlink.com 1.10,2013-01-08 06:14:00,
2013-01-08 01:29:00,58.1,54.0,30.20,NE,42,2.0,4.0,86,0.00,,,0.00,0,weatherlink.com 1.10,2013-01-08 06:29:00,
2013-01-08 01:45:00,58.1,54.0,30.20,North,5,2.0,5.0,87,0.00,,,0.00,0,weatherlink.com 1.10,2013-01-08 06:45:00,
2013-01-08 01:59:00,58.0,54.0,30.20,NE,36,3.0,6.0,87,0.00,,,0.00,0,weatherlink.com 1.10,2013-01-08 06:59:00,
2013-01-08 02:14:00,57.9,54.0,30.20,ENE,78,2.0,5.0,88,0.00,,,0.00,0,weatherlink.com 1.10,2013-01-08 07:14:00,
2013-01-08 02:30:00,58.0,55.0,30.20,North,5,1.0,3.0,88,0.00,,,0.00,0,weatherlink.com 1.10,2013-01-08 07:30:00,
2013-01-08 02:45:00,57.9,54.0,30.20,NNE,13,3.0,3.0,88,0.00,,,0.00,0,weatherlink.com 1.10,2013-01-08 07:45:00,
2013-01-08 03:00:00,57.9,54.0,30.20,North,5,2.0,4.0,88,0.00,,,0.00,0,weatherlink.com 1.10,2013-01-08 08:00:00,
2013-01-08 03:15:00,57.8,54.0,30.19,ENE,57,2.0,5.0,88,0.00,,,0.00,0,weatherlink.com 1.10,2013-01-08 08:15:00,
2013-01-08 03:30:00,57.9,55.0,30.19,NNW,344,2.0,4.0,89,0.00,,,0.00,0,weatherlink.com 1.10,2013-01-08 08:30:00,
2013-01-08 03:45:00,57.8,55.0,30.19,North,355,3.0,5.0,89,0.00,,,0.00,0,weatherlink.com 1.10,2013-01-08 08:45:00,
2013-01-08 04:15:00,57.6,54.0,30.18,North,11,4.0,5.0,89,0.00,,,0.00,0,weatherlink.com 1.10,2013-01-08 09:15:00,
2013-01-08 04:30:00,57.6,55.0,30.18,NNW,339,1.0,4.0,90,0.00,,,0.00,0,weatherlink.com 1.10,2013-01-08 09:30:00,
2013-01-08 04:45:00,57.4,55.0,30.18,North,5,3.0,6.0,90,0.00,,,0.00,0,weatherlink.com 1.10,2013-01-08 09:45:00,
2013-01-08 05:00:00,57.3,55.0,30.17,NE,38,4.0,5.0,90,0.00,,,0.00,0,weatherlink.com 1.10,2013-01-08 10:00:00,
2013-01-08 05:15:00,57.0,55.0,30.18,North,355,1.0,6.0,91,0.00,,,0.00,0,weatherlink.com 1.10,2013-01-08 10:15:00,
2013-01-08 05:30:00,56.9,54.0,30.18,North,350,3.0,4.0,91,0.00,,,0.00,0,weatherlink.com 1.10,2013-01-08 10:30:00,
2013-01-08 05:45:00,56.8,54.0,30.18,North,5,2.0,4.0,91,0.00,,,0.00,0,weatherlink.com 1.10,2013-01-08 10:45:00,
2013-01-08 06:01:00,56.6,54.0,30.19,North,9,3.0,4.0,91,0.00,,,0.00,0,weatherlink.com 1.10,2013-01-08 11:01:00,
2013-01-08 06:16:00,56.4,54.0,30.19,North,10,2.0,5.0,92,0.00,,,0.00,0,weatherlink.com 1.10,2013-01-08 11:16:00,
2013-01-08 06:31:00,56.3,54.0,30.20,NE,44,3.0,5.0,92,0.00,,,0.00,0,weatherlink.com 1.10,2013-01-08 11:31:00,
2013-01-08 06:46:00,56.2,54.0,30.21,North,355,1.0,6.0,92,0.00,,,0.00,0,weatherlink.com 1.10,2013-01-08 11:46:00,
2013-01-08 07:01:00,56.0,54.0,30.21,North,10,5.0,6.0,93,0.00,,,0.00,0,weatherlink.com 1.10,2013-01-08 12:01:00,
2013-01-08 07:16:00,55.9,54.0,30.22,NNE,15,2.0,5.0,93,0.00,,,0.00,0,weatherlink.com 1.10,2013-01-08 12:16:00,
2013-01-08 07:31:00,56.1,54.0,30.23,NNE,31,2.0,5.0,93,0.00,,,0.00,7,weatherlink.com 1.10,2013-01-08 12:31:00,
2013-01-08 07:46:00,56.2,54.0,30.23,NE,43,1.0,4.0,93,0.00,,,0.00,19,weatherlink.com 1.10,2013-01-08 12:46:00,
2013-01-08 08:01:00,56.4,55.0,30.24,NNE,19,3.0,5.0,93,0.00,,,0.00,37,weatherlink.com 1.10,2013-01-08 13:01:00,
2013-01-08 08:16:00,56.9,55.0,30.24,ENE,69,1.0,5.0,93,0.00,,,0.00,44,weatherlink.com 1.10,2013-01-08 13:16:00,
2013-01-08 08:31:00,57.6,56.0,30.25,NNE,31,1.0,4.0,93,0.00,,,0.00,49,weatherlink.com 1.10,2013-01-08 13:31:00,
2013-01-08 08:46:00,59.0,57.0,30.25,North,11,3.0,5.0,92,0.00,,,0.00,56,weatherlink.com 1.10,2013-01-08 13:46:00,
2013-01-08 09:02:00,61.3,58.0,30.25,NNE,28,3.0,9.0,90,0.00,,,0.00,58,weatherlink.com 1.10,2013-01-08 14:02:00,
2013-01-08 09:17:00,63.2,60.0,30.25,ENE,59,3.0,7.0,89,0.00,,,0.00,84,weatherlink.com 1.10,2013-01-08 14:17:00,
2013-01-08 09:32:00,65.3,62.0,30.25,East,80,6.0,8.0,88,0.00,,,0.00,65,weatherlink.com 1.10,2013-01-08 14:32:00,
2013-01-08 09:47:00,67.3,63.0,30.26,South,176,0.0,6.0,86,0.00,,,0.00,123,weatherlink.com 1.10,2013-01-08 14:47:00,
2013-01-08 10:02:00,69.4,64.0,30.26,North,5,2.0,8.0,84,0.00,,,0.00,401,weatherlink.com 1.10,2013-01-08 15:02:00,
2013-01-08 10:17:00,71.0,65.0,30.27,East,99,3.0,8.0,82,0.00,,,0.00,237,weatherlink.com 1.10,2013-01-08 15:17:00,
2013-01-08 10:32:00,71.6,66.0,30.26,East,79,2.0,8.0,83,0.00,,,0.00,255,weatherlink.com 1.10,2013-01-08 15:32:00,
2013-01-08 10:47:00,72.4,67.0,30.26,ESE,106,3.0,8.0,82,0.00,,,0.00,272,weatherlink.com 1.10,2013-01-08 15:47:00,
2013-01-08 11:02:00,72.4,67.0,30.26,SE,145,4.0,10.0,82,0.00,,,0.00,288,weatherlink.com 1.10,2013-01-08 16:02:00,
2013-01-08 11:17:00,72.8,67.0,30.25,ENE,65,2.0,8.0,81,0.00,,,0.00,290,weatherlink.com 1.10,2013-01-08 16:17:00,
2013-01-08 11:32:00,73.1,67.0,30.24,ENE,69,8.0,10.0,81,0.00,,,0.00,258,weatherlink.com 1.10,2013-01-08 16:32:00,
2013-01-08 11:48:00,73.0,67.0,30.23,East,92,2.0,8.0,82,0.00,,,0.00,193,weatherlink.com 1.10,2013-01-08 16:48:00,
2013-01-08 12:04:00,73.6,67.0,30.23,NE,44,2.0,8.0,81,0.00,,,0.00,272,weatherlink.com 1.10,2013-01-08 17:04:00,
2013-01-08 12:18:00,74.0,68.0,30.22,ENE,76,4.0,7.0,80,0.00,,,0.00,239,weatherlink.com 1.10,2013-01-08 17:18:00,
2013-01-08 12:34:00,73.2,68.0,30.21,North,5,4.0,7.0,84,0.00,,,0.00,292,weatherlink.com 1.10,2013-01-08 17:34:00,
2013-01-08 12:48:00,74.2,68.0,30.21,ENE,61,3.0,9.0,80,0.00,,,0.00,225,weatherlink.com 1.10,2013-01-08 17:48:00,
2013-01-08 13:04:00,74.7,68.0,30.20,East,94,3.0,12.0,79,0.00,,,0.00,264,weatherlink.com 1.10,2013-01-08 18:04:00,
2013-01-08 13:18:00,75.2,68.0,30.19,NE,42,6.0,8.0,78,0.00,,,0.00,248,weatherlink.com 1.10,2013-01-08 18:18:00,
2013-01-08 13:34:00,74.9,68.0,30.19,East,95,3.0,10.0,79,0.00,,,0.00,301,weatherlink.com 1.10,2013-01-08 18:34:00,
2013-01-08 13:48:00,74.6,68.0,30.19,East,79,6.0,10.0,79,0.00,,,0.00,128,weatherlink.com 1.10,2013-01-08 18:48:00,
2013-01-08 14:04:00,74.1,68.0,30.19,East,100,7.0,10.0,80,0.00,,,0.00,165,weatherlink.com 1.10,2013-01-08 19:04:00,
2013-01-08 14:18:00,74.3,68.0,30.18,East,101,6.0,9.0,81,0.00,,,0.00,485,weatherlink.com 1.10,2013-01-08 19:18:00,
2013-01-08 14:34:00,74.7,68.0,30.18,NE,45,6.0,11.0,80,0.00,,,0.00,341,weatherlink.com 1.10,2013-01-08 19:34:00,
2013-01-08 14:48:00,73.9,68.0,30.18,NE,46,4.0,13.0,82,0.00,,,0.00,120,weatherlink.com 1.10,2013-01-08 19:48:00,
2013-01-08 15:04:00,72.5,68.0,30.18,NE,47,7.0,11.0,85,0.00,,,0.00,149,weatherlink.com 1.10,2013-01-08 20:04:00,
2013-01-08 15:18:00,72.1,68.0,30.18,ESE,105,7.0,11.0,86,0.00,,,0.00,86,weatherlink.com 1.10,2013-01-08 20:18:00,
2013-01-08 15:34:00,72.0,68.0,30.18,NE,51,2.0,10.0,87,0.00,,,0.00,172,weatherlink.com 1.10,2013-01-08 20:34:00,
2013-01-08 15:48:00,73.0,68.0,30.18,East,87,3.0,10.0,85,0.00,,,0.00,116,weatherlink.com 1.10,2013-01-08 20:48:00,
2013-01-08 16:04:00,72.7,68.0,30.18,ENE,72,2.0,11.0,85,0.00,,,0.00,137,weatherlink.com 1.10,2013-01-08 21:04:00,
2013-01-08 16:18:00,72.8,68.0,30.19,ENE,59,7.0,8.0,86,0.00,,,0.00,83,weatherlink.com 1.10,2013-01-08 21:18:00,
2013-01-08 16:34:00,72.2,68.0,30.19,North,355,4.0,9.0,87,0.00,,,0.00,109,weatherlink.com 1.10,2013-01-08 21:34:00,
2013-01-08 16:49:00,72.2,68.0,30.19,NE,54,9.0,10.0,86,0.00,,,0.00,83,weatherlink.com 1.10,2013-01-08 21:49:00,
2013-01-08 17:04:00,71.5,68.0,30.19,East,87,2.0,12.0,87,0.00,,,0.00,37,weatherlink.com 1.10,2013-01-08 22:04:00,
2013-01-08 17:19:00,70.7,67.0,30.19,ENE,69,7.0,10.0,88,0.00,,,0.00,23,weatherlink.com 1.10,2013-01-08 22:19:00,
2013-01-08 17:34:00,69.5,67.0,30.20,ENE,78,8.0,8.0,90,0.00,,,0.00,11,weatherlink.com 1.10,2013-01-08 22:34:00,
2013-01-08 17:49:00,68.9,66.0,30.20,ENE,71,4.0,8.0,90,0.00,,,0.00,0,weatherlink.com 1.10,2013-01-08 22:49:00,
2013-01-08 18:04:00,68.4,66.0,30.20,ENE,63,3.0,9.0,91,0.00,,,0.00,0,weatherlink.com 1.10,2013-01-08 23:04:00,
2013-01-08 18:19:00,67.8,66.0,30.20,NE,44,2.0,5.0,92,0.00,,,0.00,0,weatherlink.com 1.10,2013-01-08 23:19:00,
2013-01-08 18:34:00,67.3,65.0,30.21,ENE,60,3.0,5.0,93,0.00,,,0.00,0,weatherlink.com 1.10,2013-01-08 23:34:00,
2013-01-08 18:49:00,67.1,65.0,30.21,NE,55,2.0,7.0,93,0.00,,,0.00,0,weatherlink.com 1.10,2013-01-08 23:49:00,
2013-01-08 19:04:00,67.0,65.0,30.21,NE,55,5.0,8.0,93,0.00,,,0.00,0,weatherlink.com 1.10,2013-01-09 00:04:00,
2013-01-08 19:19:00,66.5,65.0,30.21,NNE,17,4.0,7.0,93,0.00,,,0.00,0,weatherlink.com 1.10,2013-01-09 00:19:00,
2013-01-08 19:34:00,66.0,64.0,30.21,North,11,4.0,9.0,93,0.00,,,0.00,0,weatherlink.com 1.10,2013-01-09 00:34:00,
2013-01-08 19:50:00,65.6,64.0,30.21,NE,49,2.0,6.0,93,0.00,,,0.00,0,weatherlink.com 1.10,2013-01-09 00:50:00,
2013-01-08 20:05:00,65.4,64.0,30.21,NE,51,4.0,4.0,94,0.00,,,0.00,0,weatherlink.com 1.10,2013-01-09 01:05:00,
2013-01-08 20:19:00,65.2,64.0,30.22,NE,49,3.0,9.0,94,0.00,,,0.00,0,weatherlink.com 1.10,2013-01-09 01:19:00,
2013-01-08 20:35:00,65.0,63.0,30.21,ENE,57,2.0,7.0,94,0.00,,,0.00,0,weatherlink.com 1.10,2013-01-09 01:35:00,
2013-01-08 20:49:00,64.9,64.0,30.22,ENE,61,3.0,8.0,95,0.00,,,0.00,0,weatherlink.com 1.10,2013-01-09 01:49:00,
2013-01-08 21:04:00,64.8,63.0,30.22,NE,56,2.0,6.0,95,0.00,,,0.00,0,weatherlink.com 1.10,2013-01-09 02:04:00,
2013-01-08 21:19:00,64.7,63.0,30.23,NE,40,4.0,8.0,95,0.00,,,0.00,0,weatherlink.com 1.10,2013-01-09 02:19:00,
2013-01-08 21:35:00,64.5,63.0,30.23,NE,38,4.0,6.0,95,0.00,,,0.00,0,weatherlink.com 1.10,2013-01-09 02:35:00,
2013-01-08 21:50:00,64.4,63.0,30.23,ENE,62,1.0,6.0,96,0.00,,,0.00,0,weatherlink.com 1.10,2013-01-09 02:50:00,
2013-01-08 22:05:00,64.2,63.0,30.23,ENE,69,1.0,6.0,96,0.00,,,0.00,0,weatherlink.com 1.10,2013-01-09 03:05:00,
2013-01-08 22:20:00,64.0,63.0,30.23,NE,40,0.0,5.0,96,0.00,,,0.00,0,weatherlink.com 1.10,2013-01-09 03:20:00,
2013-01-08 22:35:00,64.0,63.0,30.23,ENE,57,5.0,7.0,97,0.00,,,0.00,0,weatherlink.com 1.10,2013-01-09 03:35:00,
2013-01-08 22:50:00,63.9,63.0,30.24,North,350,4.0,7.0,97,0.00,,,0.00,0,weatherlink.com 1.10,2013-01-09 03:50:00,
2013-01-08 23:05:00,63.9,63.0,30.25,ENE,71,4.0,8.0,97,0.00,,,0.00,0,weatherlink.com 1.10,2013-01-09 04:05:00,
2013-01-08 23:20:00,63.9,63.0,30.24,North,350,5.0,9.0,97,0.00,,,0.00,0,weatherlink.com 1.10,2013-01-09 04:20:00,
2013-01-08 23:35:00,63.8,63.0,30.25,NE,42,2.0,7.0,97,0.00,,,0.00,0,weatherlink.com 1.10,2013-01-09 04:35:00,
2013-01-08 23:50:00,63.8,63.0,30.23,NNE,24,1.0,7.0,97,0.00,,,0.00,0,weatherlink.com 1.10,2013-01-09 04:50:00,